Time,TemperatureF,DewpointF,PressureIn,WindDirection,WindDirectionDegrees,WindSpeedMPH,WindSpeedGustMPH,Humidity,HourlyPrecipIn,Conditions,Clouds,dailyrainin,SoftwareType,DateUTC
2013-03-30 00:05:00,33.2,22.0,30.02,North,358,0.0,0.0,67,0.00,,,0.00,TxWx,2013-03-30 05:05:00,
2013-03-30 00:11:00,33.0,22.0,30.02,North,358,0.0,0.0,68,0.00,,,0.00,TxWx,2013-03-30 05:11:00,
2013-03-30 00:16:00,32.8,23.0,30.02,North,358,0.0,0.0,69,0.00,,,0.00,TxWx,2013-03-30 05:16:00,
2013-03-30 00:21:00,32.7,23.0,30.02,North,357,0.0,0.0,70,0.00,,,0.00,TxWx,2013-03-30 05:21:00,
2013-03-30 00:26:00,32.9,24.0,30.02,North,357,0.0,0.0,71,0.00,,,0.00,TxWx,2013-03-30 05:26:00,
2013-03-30 00:31:00,32.8,23.0,30.03,North,353,0.0,0.0,71,0.00,,,0.00,TxWx,2013-03-30 05:31:00,
2013-03-30 00:36:00,32.7,24.0,30.03,North,353,0.0,0.0,71,0.00,,,0.00,TxWx,2013-03-30 05:36:00,
2013-03-30 00:45:00,32.4,23.0,30.03,North,353,0.0,0.0,72,0.00,,,0.00,TxWx,2013-03-30 05:45:00,
2013-03-30 00:51:00,32.3,23.0,30.03,North,355,0.0,0.0,72,0.00,,,0.00,TxWx,2013-03-30 05:51:00,
2013-03-30 00:56:00,32.2,23.0,30.03,North,355,0.0,0.0,72,0.00,,,0.00,TxWx,2013-03-30 05:56:00,
2013-03-30 01:01:00,31.9,23.0,30.03,North,355,0.0,0.0,72,0.00,,,0.00,TxWx,2013-03-30 06:01:00,
2013-03-30 01:10:00,31.8,23.0,30.03,North,354,0.0,0.0,74,0.00,,,0.00,TxWx,2013-03-30 06:10:00,
2013-03-30 01:15:00,31.7,23.0,30.03,North,353,0.0,0.0,74,0.00,,,0.00,TxWx,2013-03-30 06:15:00,
2013-03-30 01:20:00,31.5,23.0,30.03,North,353,0.0,0.0,74,0.00,,,0.00,TxWx,2013-03-30 06:20:00,
2013-03-30 01:27:00,31.5,23.0,30.03,North,352,0.0,0.0,75,0.00,,,0.00,TxWx,2013-03-30 06:27:00,
2013-03-30 01:35:00,31.4,23.0,30.02,NNW,346,0.0,0.0,75,0.00,,,0.00,TxWx,2013-03-30 06:35:00,
2013-03-30 01:40:00,31.3,23.0,30.02,NNW,346,0.0,0.0,75,0.00,,,0.00,TxWx,2013-03-30 06:40:00,
2013-03-30 01:46:00,31.4,23.0,30.03,NNW,346,0.0,0.0,75,0.00,,,0.00,TxWx,2013-03-30 06:46:00,
2013-03-30 01:51:00,31.4,23.0,30.03,NNW,346,0.0,0.0,75,0.00,,,0.00,TxWx,2013-03-30 06:51:00,
2013-03-30 01:56:00,31.5,23.0,30.03,NNW,346,0.0,0.0,75,0.00,,,0.00,TxWx,2013-03-30 06:56:00,
2013-03-30 02:01:00,31.4,23.0,30.03,NNW,346,0.0,0.0,74,0.00,,,0.00,TxWx,2013-03-30 07:01:00,
2013-03-30 02:06:00,31.3,23.0,30.03,NNW,346,0.0,0.0,74,0.00,,,0.00,TxWx,2013-03-30 07:06:00,
2013-03-30 02:16:00,30.9,23.0,30.02,NNW,347,0.0,0.0,75,0.00,,,0.00,TxWx,2013-03-30 07:16:00,
2013-03-30 02:21:00,30.7,23.0,30.02,NNW,347,0.0,0.0,76,0.00,,,0.00,TxWx,2013-03-30 07:21:00,
2013-03-30 02:31:00,30.1,22.0,30.02,NNW,346,0.0,0.0,76,0.00,,,0.00,TxWx,2013-03-30 07:31:00,
2013-03-30 02:36:00,30.0,23.0,30.02,NNW,346,0.0,0.0,77,0.00,,,0.00,TxWx,2013-03-30 07:36:00,
2013-03-30 02:46:00,30.2,23.0,30.02,NNW,347,0.0,0.0,78,0.00,,,0.00,TxWx,2013-03-30 07:46:00,
2013-03-30 02:56:00,29.9,23.0,30.02,NNW,346,0.0,0.0,78,0.00,,,0.00,TxWx,2013-03-30 07:56:00,
2013-03-30 03:01:00,29.8,23.0,30.02,NNW,347,0.0,0.0,78,0.00,,,0.00,TxWx,2013-03-30 08:01:00,
2013-03-30 03:07:00,30.0,23.0,30.02,NNW,346,0.0,0.0,79,0.00,,,0.00,TxWx,2013-03-30 08:07:00,
2013-03-30 03:12:00,30.0,23.0,30.01,NNW,346,0.0,0.0,79,0.00,,,0.00,TxWx,2013-03-30 08:12:00,
2013-03-30 03:21:00,30.0,23.0,30.01,NNW,347,0.0,0.0,79,0.00,,,0.00,TxWx,2013-03-30 08:21:00,
2013-03-30 03:26:00,29.8,23.0,30.01,NNW,347,0.0,0.0,79,0.00,,,0.00,TxWx,2013-03-30 08:26:00,
2013-03-30 03:31:00,29.5,23.0,30.01,NNW,346,0.0,0.0,79,0.00,,,0.00,TxWx,2013-03-30 08:31:00,
2013-03-30 03:36:00,29.2,22.0,30.00,NNW,346,0.0,0.0,79,0.00,,,0.00,TxWx,2013-03-30 08:36:00,
2013-03-30 03:41:00,29.0,22.0,30.00,NNW,346,0.0,0.0,80,0.00,,,0.00,TxWx,2013-03-30 08:41:00,
2013-03-30 03:51:00,28.9,23.0,30.00,NNW,347,0.0,0.0,81,0.00,,,0.00,TxWx,2013-03-30 08:51:00,
2013-03-30 03:56:00,28.8,23.0,30.00,NNW,347,0.0,0.0,81,0.00,,,0.00,TxWx,2013-03-30 08:56:00,
2013-03-30 04:01:00,29.4,23.0,30.00,NNW,347,0.0,0.0,82,0.00,,,0.00,TxWx,2013-03-30 09:01:00,
2013-03-30 04:11:00,29.7,24.0,30.00,NNW,344,0.0,0.0,82,0.00,,,0.00,TxWx,2013-03-30 09:11:00,
2013-03-30 04:16:00,29.7,24.0,30.00,NNW,344,0.0,0.0,82,0.00,,,0.00,TxWx,2013-03-30 09:16:00,
2013-03-30 04:21:00,29.6,24.0,30.00,NNW,344,0.0,0.0,82,0.00,,,0.00,TxWx,2013-03-30 09:21:00,
2013-03-30 04:27:00,29.5,24.0,30.00,NNW,348,0.0,0.0,82,0.00,,,0.00,TxWx,2013-03-30 09:27:00,
2013-03-30 04:32:00,29.5,24.0,30.00,NNW,348,0.0,0.0,82,0.00,,,0.00,TxWx,2013-03-30 09:32:00,
2013-03-30 04:34:00,29.5,24.0,30.00,NNW,348,0.0,0.0,82,0.00,,,0.00,TxWx,2013-03-30 09:34:00,
2013-03-30 04:41:00,29.4,23.0,30.00,NNW,348,0.0,0.0,82,0.00,,,0.00,TxWx,2013-03-30 09:41:00,
2013-03-30 04:51:00,29.4,23.0,30.00,NNW,348,0.0,0.0,82,0.00,,,0.00,TxWx,2013-03-30 09:51:00,
2013-03-30 05:01:00,29.4,23.0,30.00,NNW,348,0.0,0.0,83,0.00,,,0.00,TxWx,2013-03-30 10:01:00,
2013-03-30 05:06:00,29.4,23.0,30.00,NNW,348,0.0,0.0,83,0.00,,,0.00,TxWx,2013-03-30 10:06:00,
2013-03-30 05:11:00,29.5,24.0,30.01,NNW,348,0.0,0.0,83,0.00,,,0.00,TxWx,2013-03-30 10:11:00,
2013-03-30 05:18:00,29.7,24.0,30.01,NNW,348,0.0,0.0,83,0.00,,,0.00,TxWx,2013-03-30 10:18:00,
2013-03-30 05:26:00,29.6,24.0,30.01,NNW,348,0.0,0.0,82,0.00,,,0.00,TxWx,2013-03-30 10:26:00,
2013-03-30 05:31:00,29.4,23.0,30.01,NNW,348,0.0,0.0,82,0.00,,,0.00,TxWx,2013-03-30 10:31:00,
2013-03-30 05:41:00,29.4,23.0,30.01,NNW,348,0.0,0.0,83,0.00,,,0.00,TxWx,2013-03-30 10:41:00,
2013-03-30 05:51:00,29.1,23.0,30.01,NE,55,0.0,0.0,82,0.00,,,0.00,TxWx,2013-03-30 10:51:00,
2013-03-30 05:56:00,28.9,23.0,30.01,NE,55,0.0,0.0,82,0.00,,,0.00,TxWx,2013-03-30 10:56:00,
2013-03-30 06:01:00,28.6,23.0,30.01,NE,54,0.0,0.0,81,0.00,,,0.00,TxWx,2013-03-30 11:01:00,
2013-03-30 06:06:00,28.4,22.0,30.00,NE,55,0.0,0.0,82,0.00,,,0.00,TxWx,2013-03-30 11:06:00,
2013-03-30 06:12:00,28.2,22.0,30.00,NE,55,0.0,0.0,82,0.00,,,0.00,TxWx,2013-03-30 11:12:00,
2013-03-30 06:17:00,27.9,22.0,30.00,NE,55,0.0,0.0,82,0.00,,,0.00,TxWx,2013-03-30 11:17:00,
2013-03-30 06:26:00,27.8,22.0,30.00,NE,54,0.0,0.0,82,0.00,,,0.00,TxWx,2013-03-30 11:26:00,
2013-03-30 06:31:00,27.8,22.0,29.99,NE,54,0.0,0.0,82,0.00,,,0.00,TxWx,2013-03-30 11:31:00,
2013-03-30 06:36:00,27.6,22.0,29.99,NE,55,0.0,0.0,82,0.00,,,0.00,TxWx,2013-03-30 11:36:00,
2013-03-30 06:41:00,27.6,22.0,29.99,NE,55,0.0,0.0,82,0.00,,,0.00,TxWx,2013-03-30 11:41:00,
2013-03-30 06:46:00,28.2,22.0,29.99,NNE,33,0.0,0.0,81,0.00,,,0.00,TxWx,2013-03-30 11:46:00,
2013-03-30 06:52:00,28.7,22.0,29.99,NE,35,0.0,0.0,77,0.00,,,0.00,TxWx,2013-03-30 11:52:00,
2013-03-30 06:57:00,28.8,21.0,29.99,NE,38,0.0,0.0,76,0.00,,,0.00,TxWx,2013-03-30 11:57:00,
2013-03-30 07:02:00,29.0,21.0,29.99,NE,38,0.0,0.0,75,0.00,,,0.00,TxWx,2013-03-30 12:02:00,
2013-03-30 07:07:00,29.0,21.0,29.98,NNE,23,0.0,0.0,75,0.00,,,0.00,TxWx,2013-03-30 12:07:00,
2013-03-30 07:13:00,29.4,20.0,29.98,NE,41,0.0,0.0,73,0.00,,,0.00,TxWx,2013-03-30 12:13:00,
2013-03-30 07:18:00,30.4,20.0,29.98,NE,46,0.0,0.0,69,0.00,,,0.00,TxWx,2013-03-30 12:18:00,
2013-03-30 07:23:00,30.9,20.0,29.98,NE,36,0.0,0.0,66,0.00,,,0.00,TxWx,2013-03-30 12:23:00,
2013-03-30 07:31:00,32.0,19.0,29.98,NE,38,0.0,0.0,62,0.00,,,0.00,TxWx,2013-03-30 12:31:00,
2013-03-30 07:36:00,32.7,20.0,29.97,NNE,33,0.0,0.0,60,0.00,,,0.00,TxWx,2013-03-30 12:36:00,
2013-03-30 07:46:00,33.9,19.0,29.98,NE,51,0.0,0.0,56,0.00,,,0.00,TxWx,2013-03-30 12:46:00,
2013-03-30 07:51:00,34.6,20.0,29.98,NE,42,0.0,0.0,56,0.00,,,0.00,TxWx,2013-03-30 12:51:00,
2013-03-30 08:01:00,35.2,19.0,29.98,NE,39,0.0,0.0,53,0.00,,,0.00,TxWx,2013-03-30 13:01:00,
2013-03-30 08:06:00,35.6,19.0,29.98,NE,42,0.0,0.0,53,0.00,,,0.00,TxWx,2013-03-30 13:06:00,
2013-03-30 08:11:00,35.9,19.0,29.98,NE,48,0.0,0.0,52,0.00,,,0.00,TxWx,2013-03-30 13:11:00,
2013-03-30 08:19:00,36.2,19.0,29.98,NE,46,0.0,0.0,51,0.00,,,0.00,TxWx,2013-03-30 13:19:00,
2013-03-30 08:26:00,36.7,20.0,29.98,NE,45,0.0,0.0,52,0.00,,,0.00,TxWx,2013-03-30 13:26:00,
2013-03-30 08:32:00,37.4,20.0,29.97,NE,39,0.0,0.0,52,0.00,,,0.00,TxWx,2013-03-30 13:32:00,
2013-03-30 08:41:00,37.9,20.0,29.97,NE,41,0.0,0.0,50,0.00,,,0.00,TxWx,2013-03-30 13:41:00,
2013-03-30 08:51:00,38.4,20.0,29.96,NE,37,0.0,0.0,50,0.00,,,0.00,TxWx,2013-03-30 13:51:00,
2013-03-30 08:56:00,39.2,20.0,29.96,NE,47,0.0,0.0,49,0.00,,,0.00,TxWx,2013-03-30 13:56:00,
2013-03-30 09:06:00,40.1,21.0,29.95,NE,48,0.0,0.0,48,0.00,,,0.00,TxWx,2013-03-30 14:06:00,
2013-03-30 09:11:00,40.7,21.0,29.96,NE,49,0.0,0.0,47,0.00,,,0.00,TxWx,2013-03-30 14:11:00,
2013-03-30 09:16:00,41.5,22.0,29.96,NE,42,0.0,0.0,46,0.00,,,0.00,TxWx,2013-03-30 14:16:00,
2013-03-30 09:26:00,42.0,20.0,29.96,NE,51,0.0,0.0,43,0.00,,,0.00,TxWx,2013-03-30 14:26:00,
2013-03-30 09:31:00,42.5,20.0,29.96,NE,41,0.0,0.0,42,0.00,,,0.00,TxWx,2013-03-30 14:31:00,
2013-03-30 09:36:00,42.8,20.0,29.95,NE,42,0.0,0.0,42,0.00,,,0.00,TxWx,2013-03-30 14:36:00,
2013-03-30 09:42:00,43.4,21.0,29.96,NE,34,0.0,0.0,43,0.00,,,0.00,TxWx,2013-03-30 14:42:00,
2013-03-30 09:47:00,44.2,21.0,29.95,NE,46,0.0,0.0,41,0.00,,,0.00,TxWx,2013-03-30 14:47:00,
2013-03-30 09:56:00,44.7,22.0,29.95,NNE,31,0.0,0.0,42,0.00,,,0.00,TxWx,2013-03-30 14:56:00,
2013-03-30 10:01:00,45.1,22.0,29.94,NE,44,0.0,0.0,41,0.00,,,0.00,TxWx,2013-03-30 15:01:00,
2013-03-30 10:06:00,45.2,21.0,29.94,NNE,31,0.0,0.0,40,0.00,,,0.00,TxWx,2013-03-30 15:06:00,
2013-03-30 10:12:00,45.9,22.0,29.94,NE,45,0.0,0.0,40,0.00,,,0.00,TxWx,2013-03-30 15:12:00,
2013-03-30 10:17:00,45.6,21.0,29.94,NE,39,0.0,0.0,38,0.00,,,0.00,TxWx,2013-03-30 15:17:00,
2013-03-30 10:22:00,46.0,21.0,29.94,NE,45,0.0,0.0,39,0.00,,,0.00,TxWx,2013-03-30 15:22:00,
2013-03-30 10:31:00,46.3,21.0,29.94,NE,42,0.0,0.0,38,0.00,,,0.00,TxWx,2013-03-30 15:31:00,
2013-03-30 10:36:00,46.8,22.0,29.93,NE,44,0.0,0.0,39,0.00,,,0.00,TxWx,2013-03-30 15:36:00,
2013-03-30 10:41:00,47.3,23.0,29.93,NE,40,0.0,0.0,40,0.00,,,0.00,TxWx,2013-03-30 15:41:00,
2013-03-30 10:47:00,47.7,24.0,29.93,NE,48,0.0,0.0,40,0.00,,,0.00,TxWx,2013-03-30 15:47:00,
2013-03-30 10:56:00,48.3,24.0,29.92,ENE,57,0.0,0.0,41,0.00,,,0.00,TxWx,2013-03-30 15:56:00,
2013-03-30 11:01:00,48.6,25.0,29.92,NE,55,0.0,0.0,41,0.00,,,0.00,TxWx,2013-03-30 16:01:00,
2013-03-30 11:06:00,48.8,25.0,29.91,ENE,61,0.0,0.0,41,0.00,,,0.00,TxWx,2013-03-30 16:06:00,
2013-03-30 11:11:00,49.7,26.0,29.91,NE,51,0.0,0.0,42,0.00,,,0.00,TxWx,2013-03-30 16:11:00,
2013-03-30 11:16:00,49.9,27.0,29.91,ENE,57,0.0,0.0,42,0.00,,,0.00,TxWx,2013-03-30 16:16:00,
2013-03-30 11:22:00,49.5,27.0,29.91,ENE,69,0.0,0.0,43,0.00,,,0.00,TxWx,2013-03-30 16:22:00,
2013-03-30 11:31:00,50.2,28.0,29.91,NE,55,0.0,0.0,44,0.00,,,0.00,TxWx,2013-03-30 16:31:00,
2013-03-30 11:36:00,50.2,28.0,29.91,ENE,66,0.0,0.0,45,0.00,,,0.00,TxWx,2013-03-30 16:36:00,
2013-03-30 11:41:00,50.3,28.0,29.91,ENE,62,0.0,0.0,44,0.00,,,0.00,TxWx,2013-03-30 16:41:00,
2013-03-30 11:46:00,50.4,28.0,29.90,ENE,57,0.0,0.0,45,0.00,,,0.00,TxWx,2013-03-30 16:46:00,
2013-03-30 11:51:00,50.5,28.0,29.90,ENE,57,0.0,0.0,44,0.00,,,0.00,TxWx,2013-03-30 16:51:00,
2013-03-30 12:01:00,51.7,30.0,29.89,NE,47,0.0,0.0,44,0.00,,,0.00,TxWx,2013-03-30 17:01:00,
2013-03-30 12:12:00,51.4,28.0,29.89,NE,51,0.0,0.0,43,0.00,,,0.00,TxWx,2013-03-30 17:12:00,
2013-03-30 12:17:00,51.8,29.0,29.89,ENE,61,0.0,0.0,43,0.00,,,0.00,TxWx,2013-03-30 17:17:00,
2013-03-30 12:22:00,51.4,28.0,29.89,ENE,61,0.0,0.0,42,0.00,,,0.00,TxWx,2013-03-30 17:22:00,
2013-03-30 12:31:00,51.8,28.0,29.88,ENE,64,0.0,0.0,42,0.00,,,0.00,TxWx,2013-03-30 17:31:00,
2013-03-30 12:37:00,52.2,29.0,29.88,ENE,62,0.0,0.0,42,0.00,,,0.00,TxWx,2013-03-30 17:37:00,
2013-03-30 12:42:00,52.3,29.0,29.88,ENE,64,0.0,0.0,43,0.00,,,0.00,TxWx,2013-03-30 17:42:00,
2013-03-30 12:47:00,52.8,30.0,29.87,ENE,58,0.0,0.0,43,0.00,,,0.00,TxWx,2013-03-30 17:47:00,
2013-03-30 12:56:00,52.7,29.0,29.87,ENE,71,0.0,0.0,41,0.00,,,0.00,TxWx,2013-03-30 17:56:00,
2013-03-30 13:01:00,53.0,29.0,29.87,NE,54,0.0,0.0,42,0.00,,,0.00,TxWx,2013-03-30 18:01:00,
2013-03-30 13:06:00,52.9,29.0,29.87,NE,51,0.0,0.0,41,0.00,,,0.00,TxWx,2013-03-30 18:06:00,
2013-03-30 13:16:00,52.7,29.0,29.86,ENE,67,0.0,0.0,41,0.00,,,0.00,TxWx,2013-03-30 18:16:00,
2013-03-30 13:21:00,53.0,29.0,29.86,ENE,62,0.0,0.0,42,0.00,,,0.00,TxWx,2013-03-30 18:21:00,
2013-03-30 13:26:00,53.1,29.0,29.86,NE,52,0.0,0.0,41,0.00,,,0.00,TxWx,2013-03-30 18:26:00,
2013-03-30 13:32:00,52.8,29.0,29.85,ENE,61,0.0,0.0,41,0.00,,,0.00,TxWx,2013-03-30 18:32:00,
2013-03-30 13:37:00,53.1,29.0,29.85,ENE,57,0.0,0.0,41,0.00,,,0.00,TxWx,2013-03-30 18:37:00,
2013-03-30 13:42:00,53.0,29.0,29.84,ENE,66,0.0,0.0,41,0.00,,,0.00,TxWx,2013-03-30 18:42:00,
2013-03-30 13:47:00,53.5,30.0,29.84,ENE,61,0.0,0.0,42,0.00,,,0.00,TxWx,2013-03-30 18:47:00,
2013-03-30 13:53:00,53.8,30.0,29.84,ENE,57,0.0,0.0,41,0.00,,,0.00,TxWx,2013-03-30 18:53:00,
2013-03-30 14:01:00,53.8,29.0,29.83,ENE,57,0.0,0.0,40,0.00,,,0.00,TxWx,2013-03-30 19:01:00,
2013-03-30 14:06:00,53.7,29.0,29.83,NE,52,0.0,0.0,41,0.00,,,0.00,TxWx,2013-03-30 19:06:00,
2013-03-30 14:16:00,54.3,29.0,29.82,ENE,62,0.0,0.0,40,0.00,,,0.00,TxWx,2013-03-30 19:16:00,
2013-03-30 14:21:00,54.3,29.0,29.82,ENE,68,0.0,0.0,39,0.00,,,0.00,TxWx,2013-03-30 19:21:00,
2013-03-30 14:26:00,54.0,28.0,29.81,ENE,61,0.0,0.0,39,0.00,,,0.00,TxWx,2013-03-30 19:26:00,
2013-03-30 14:36:00,54.3,29.0,29.81,NE,41,0.0,0.0,39,0.00,,,0.00,TxWx,2013-03-30 19:36:00,
2013-03-30 14:46:00,54.7,29.0,29.80,NE,51,0.0,0.0,39,0.00,,,0.00,TxWx,2013-03-30 19:46:00,
2013-03-30 14:51:00,54.8,28.0,29.80,NE,56,0.0,0.0,38,0.00,,,0.00,TxWx,2013-03-30 19:51:00,
2013-03-30 14:56:00,54.8,29.0,29.80,ENE,59,0.0,0.0,38,0.00,,,0.00,TxWx,2013-03-30 19:56:00,
2013-03-30 15:06:00,55.4,28.0,29.79,NE,37,0.0,0.0,37,0.00,,,0.00,TxWx,2013-03-30 20:06:00,
2013-03-30 15:11:00,55.2,28.0,29.79,NNE,32,0.0,0.0,37,0.00,,,0.00,TxWx,2013-03-30 20:11:00,
2013-03-30 15:16:00,55.5,29.0,29.79,NE,51,0.0,0.0,38,0.00,,,0.00,TxWx,2013-03-30 20:16:00,
2013-03-30 15:26:00,55.5,29.0,29.78,NE,47,0.0,0.0,38,0.00,,,0.00,TxWx,2013-03-30 20:26:00,
2013-03-30 15:31:00,55.1,28.0,29.78,NE,36,0.0,0.0,38,0.00,,,0.00,TxWx,2013-03-30 20:31:00,
2013-03-30 15:41:00,55.4,28.0,29.77,NE,38,0.0,0.0,37,0.00,,,0.00,TxWx,2013-03-30 20:41:00,
2013-03-30 15:46:00,55.6,29.0,29.77,NE,37,0.0,0.0,38,0.00,,,0.00,TxWx,2013-03-30 20:46:00,
2013-03-30 15:51:00,55.4,28.0,29.77,NE,41,0.0,0.0,37,0.00,,,0.00,TxWx,2013-03-30 20:51:00,
2013-03-30 15:56:00,55.1,28.0,29.77,NE,42,0.0,0.0,38,0.00,,,0.00,TxWx,2013-03-30 20:56:00,
2013-03-30 16:06:00,55.0,29.0,29.77,NE,34,0.0,0.0,39,0.00,,,0.00,TxWx,2013-03-30 21:06:00,
2013-03-30 16:11:00,55.1,29.0,29.77,NE,41,0.0,0.0,39,0.00,,,0.00,TxWx,2013-03-30 21:11:00,
2013-03-30 16:16:00,55.2,29.0,29.76,NE,36,0.0,0.0,39,0.00,,,0.00,TxWx,2013-03-30 21:16:00,
2013-03-30 16:21:00,55.3,29.0,29.76,NE,39,0.0,0.0,39,0.00,,,0.00,TxWx,2013-03-30 21:21:00,
2013-03-30 16:26:00,55.4,30.0,29.76,NE,45,0.0,0.0,40,0.00,,,0.00,TxWx,2013-03-30 21:26:00,
2013-03-30 16:36:00,55.5,29.0,29.76,NE,39,0.0,0.0,39,0.00,,,0.00,TxWx,2013-03-30 21:36:00,
2013-03-30 16:41:00,55.2,29.0,29.76,NE,48,0.0,0.0,39,0.00,,,0.00,TxWx,2013-03-30 21:41:00,
2013-03-30 16:46:00,55.0,30.0,29.75,NE,48,0.0,0.0,40,0.00,,,0.00,TxWx,2013-03-30 21:46:00,
2013-03-30 16:56:00,55.2,30.0,29.75,NE,50,0.0,0.0,40,0.00,,,0.00,TxWx,2013-03-30 21:56:00,
2013-03-30 17:01:00,55.2,30.0,29.75,NE,41,0.0,0.0,40,0.00,,,0.00,TxWx,2013-03-30 22:01:00,
2013-03-30 17:06:00,55.2,30.0,29.75,NE,37,0.0,0.0,40,0.00,,,0.00,TxWx,2013-03-30 22:06:00,
2013-03-30 17:11:00,55.2,30.0,29.75,NE,45,0.0,0.0,40,0.00,,,0.00,TxWx,2013-03-30 22:11:00,
2013-03-30 17:16:00,54.9,30.0,29.75,NE,40,0.0,0.0,40,0.00,,,0.00,TxWx,2013-03-30 22:16:00,
2013-03-30 17:22:00,54.9,30.0,29.75,NNE,29,0.0,0.0,40,0.00,,,0.00,TxWx,2013-03-30 22:22:00,
2013-03-30 17:27:00,54.7,30.0,29.75,NE,38,0.0,0.0,40,0.00,,,0.00,TxWx,2013-03-30 22:27:00,
2013-03-30 17:32:00,54.9,30.0,29.74,NE,37,0.0,0.0,41,0.00,,,0.00,TxWx,2013-03-30 22:32:00,
2013-03-30 17:37:00,54.6,30.0,29.74,NE,40,0.0,0.0,40,0.00,,,0.00,TxWx,2013-03-30 22:37:00,
2013-03-30 17:46:00,54.3,29.0,29.74,NE,46,0.0,0.0,40,0.00,,,0.00,TxWx,2013-03-30 22:46:00,
2013-03-30 17:51:00,54.1,29.0,29.74,NE,45,0.0,0.0,40,0.00,,,0.00,TxWx,2013-03-30 22:51:00,
2013-03-30 17:56:00,54.0,29.0,29.74,NE,43,0.0,0.0,41,0.00,,,0.00,TxWx,2013-03-30 22:56:00,
2013-03-30 18:01:00,53.9,30.0,29.74,NE,56,0.0,0.0,41,0.00,,,0.00,TxWx,2013-03-30 23:01:00,
2013-03-30 18:11:00,53.7,30.0,29.74,NE,52,0.0,0.0,42,0.00,,,0.00,TxWx,2013-03-30 23:11:00,
2013-03-30 18:16:00,53.6,30.0,29.74,NE,46,0.0,0.0,42,0.00,,,0.00,TxWx,2013-03-30 23:16:00,
2013-03-30 18:26:00,53.3,29.0,29.73,NE,48,0.0,0.0,42,0.00,,,0.00,TxWx,2013-03-30 23:26:00,
2013-03-30 18:32:00,53.1,30.0,29.73,NE,47,0.0,0.0,43,0.00,,,0.00,TxWx,2013-03-30 23:32:00,
2013-03-30 18:41:00,52.9,30.0,29.73,NE,44,0.0,0.0,43,0.00,,,0.00,TxWx,2013-03-30 23:41:00,
2013-03-30 18:46:00,52.8,30.0,29.72,NE,39,0.0,0.0,44,0.00,,,0.00,TxWx,2013-03-30 23:46:00,
2013-03-30 18:51:00,52.7,30.0,29.72,NE,42,0.0,0.0,43,0.00,,,0.00,TxWx,2013-03-30 23:51:00,
2013-03-30 19:01:00,52.4,29.0,29.72,NE,52,0.0,0.0,43,0.00,,,0.00,TxWx,2013-03-31 00:01:00,
2013-03-30 19:06:00,52.2,29.0,29.72,NE,53,0.0,0.0,44,0.00,,,0.00,TxWx,2013-03-31 00:06:00,
2013-03-30 19:11:00,52.0,30.0,29.72,ENE,58,0.0,0.0,44,0.00,,,0.00,TxWx,2013-03-31 00:11:00,
2013-03-30 19:16:00,51.8,30.0,29.71,ENE,60,0.0,0.0,45,0.00,,,0.00,TxWx,2013-03-31 00:16:00,
2013-03-30 19:22:00,51.6,30.0,29.72,NE,51,0.0,0.0,45,0.00,,,0.00,TxWx,2013-03-31 00:22:00,
2013-03-30 19:31:00,51.3,30.0,29.72,NE,41,0.0,0.0,46,0.00,,,0.00,TxWx,2013-03-31 00:31:00,
2013-03-30 19:36:00,51.1,30.0,29.72,ENE,62,0.0,0.0,47,0.00,,,0.00,TxWx,2013-03-31 00:36:00,
2013-03-30 19:42:00,51.0,30.0,29.71,NE,50,0.0,0.0,47,0.00,,,0.00,TxWx,2013-03-31 00:42:00,
2013-03-30 19:48:00,50.8,31.0,29.71,NE,49,0.0,0.0,48,0.00,,,0.00,TxWx,2013-03-31 00:48:00,
2013-03-30 19:56:00,50.6,31.0,29.72,NE,50,0.0,0.0,48,0.00,,,0.00,TxWx,2013-03-31 00:56:00,
2013-03-30 20:01:00,50.5,32.0,29.72,NE,52,0.0,0.0,49,0.00,,,0.00,TxWx,2013-03-31 01:01:00,
2013-03-30 20:06:00,50.5,30.0,29.72,NE,46,0.0,0.0,49,0.00,,,0.00,TxWx,2013-03-31 01:06:00,
2013-03-30 20:11:00,50.4,30.0,29.72,NE,53,0.0,0.0,49,0.00,,,0.00,TxWx,2013-03-31 01:11:00,
2013-03-30 20:17:00,50.4,31.0,29.72,NE,52,0.0,0.0,49,0.00,,,0.00,TxWx,2013-03-31 01:17:00,
2013-03-30 20:22:00,50.4,31.0,29.71,NE,53,0.0,0.0,49,0.00,,,0.00,TxWx,2013-03-31 01:22:00,
2013-03-30 20:27:00,50.3,31.0,29.71,ENE,57,0.0,0.0,49,0.00,,,0.00,TxWx,2013-03-31 01:27:00,
2013-03-30 20:36:00,50.2,31.0,29.71,NE,54,0.0,0.0,50,0.00,,,0.00,TxWx,2013-03-31 01:36:00,
2013-03-30 20:41:00,50.1,32.0,29.71,ENE,57,0.0,0.0,50,0.00,,,0.00,TxWx,2013-03-31 01:41:00,
2013-03-30 20:47:00,50.0,32.0,29.71,ENE,57,0.0,0.0,50,0.00,,,0.00,TxWx,2013-03-31 01:47:00,
2013-03-30 20:52:00,49.9,32.0,29.71,ENE,57,0.0,0.0,51,0.00,,,0.00,TxWx,2013-03-31 01:52:00,
2013-03-30 20:58:00,49.8,33.0,29.71,NE,56,0.0,0.0,51,0.00,,,0.00,TxWx,2013-03-31 01:58:00,
2013-03-30 21:06:00,49.8,33.0,29.71,NE,55,0.0,0.0,52,0.00,,,0.00,TxWx,2013-03-31 02:06:00,
2013-03-30 21:11:00,49.8,33.0,29.71,NE,56,0.0,0.0,52,0.00,,,0.00,TxWx,2013-03-31 02:11:00,
2013-03-30 21:17:00,49.7,33.0,29.71,ENE,61,0.0,0.0,53,0.00,,,0.00,TxWx,2013-03-31 02:17:00,
2013-03-30 21:22:00,49.6,34.0,29.70,ENE,57,0.0,0.0,53,0.00,,,0.00,TxWx,2013-03-31 02:22:00,
2013-03-30 21:27:00,49.5,34.0,29.70,ENE,65,0.0,0.0,54,0.00,,,0.00,TxWx,2013-03-31 02:27:00,
2013-03-30 21:32:00,49.5,34.0,29.70,ENE,64,0.0,0.0,54,0.00,,,0.00,TxWx,2013-03-31 02:32:00,
2013-03-30 21:42:00,49.6,34.0,29.70,ENE,61,0.0,0.0,54,0.00,,,0.00,TxWx,2013-03-31 02:42:00,
2013-03-30 21:47:00,49.6,34.0,29.70,NE,54,0.0,0.0,54,0.00,,,0.00,TxWx,2013-03-31 02:47:00,
2013-03-30 21:52:00,49.5,34.0,29.70,ENE,60,0.0,0.0,54,0.00,,,0.00,TxWx,2013-03-31 02:52:00,
2013-03-30 22:00:00,49.4,33.0,29.70,NE,55,0.0,0.0,55,0.00,,,0.00,TxWx,2013-03-31 03:00:00,
2013-03-30 22:06:00,49.1,34.0,29.70,ENE,59,0.0,0.0,55,0.00,,,0.00,TxWx,2013-03-31 03:06:00,
2013-03-30 22:11:00,49.0,34.0,29.69,ENE,60,0.0,0.0,56,0.00,,,0.00,TxWx,2013-03-31 03:11:00,
2013-03-30 22:17:00,49.1,34.0,29.69,NE,44,0.0,0.0,56,0.00,,,0.00,TxWx,2013-03-31 03:17:00,
2013-03-30 22:22:00,49.1,34.0,29.69,NE,52,0.0,0.0,56,0.00,,,0.00,TxWx,2013-03-31 03:22:00,
2013-03-30 22:28:00,49.0,34.0,29.69,NE,50,0.0,0.0,56,0.00,,,0.00,TxWx,2013-03-31 03:28:00,
2013-03-30 22:33:00,48.9,34.0,29.68,NE,49,0.0,0.0,57,0.00,,,0.00,TxWx,2013-03-31 03:33:00,
2013-03-30 22:38:00,48.8,34.0,29.68,NE,50,0.0,0.0,57,0.00,,,0.00,TxWx,2013-03-31 03:38:00,
2013-03-30 22:43:00,48.7,34.0,29.68,NE,49,0.0,0.0,57,0.00,,,0.00,TxWx,2013-03-31 03:43:00,
2013-03-30 22:48:00,48.7,34.0,29.68,NE,52,0.0,0.0,57,0.00,,,0.00,TxWx,2013-03-31 03:48:00,
2013-03-30 22:56:00,48.4,34.0,29.68,NE,47,0.0,0.0,58,0.00,,,0.00,TxWx,2013-03-31 03:56:00,
2013-03-30 23:00:00,48.3,34.0,29.67,NE,51,0.0,0.0,58,0.00,,,0.00,TxWx,2013-03-31 04:00:00,
2013-03-30 23:01:00,48.3,34.0,29.67,NE,54,0.0,0.0,58,0.00,,,0.00,TxWx,2013-03-31 04:01:00,
2013-03-30 23:06:00,48.1,34.0,29.67,NE,51,0.0,0.0,59,0.00,,,0.00,TxWx,2013-03-31 04:06:00,
2013-03-30 23:07:00,48.0,34.0,29.67,NE,51,0.0,0.0,59,0.00,,,0.00,TxWx,2013-03-31 04:07:00,
2013-03-30 23:12:00,48.0,34.0,29.67,ENE,63,0.0,0.0,59,0.00,,,0.00,TxWx,2013-03-31 04:12:00,
2013-03-30 23:21:00,48.0,35.0,29.67,NE,54,0.0,0.0,60,0.00,,,0.00,TxWx,2013-03-31 04:21:00,
2013-03-30 23:26:00,47.9,35.0,29.67,NE,54,0.0,0.0,60,0.00,,,0.00,TxWx,2013-03-31 04:26:00,
2013-03-30 23:31:00,47.8,35.0,29.67,ENE,59,0.0,0.0,60,0.00,,,0.00,TxWx,2013-03-31 04:31:00,
2013-03-30 23:41:00,47.7,35.0,29.67,NE,50,0.0,0.0,61,0.00,,,0.00,TxWx,2013-03-31 04:41:00,
2013-03-30 23:46:00,47.5,35.0,29.66,NE,49,0.0,0.0,61,0.00,,,0.00,TxWx,2013-03-31 04:46:00,
2013-03-30 23:52:00,47.4,34.0,29.65,NE,45,0.0,0.0,61,0.00,,,0.00,TxWx,2013-03-31 04:52:00,